sensor_id;sensor_type;location;lat;lon;timestamp;pressure;altitude;pressure_sealevel;temperature;humidity
31331;BME280;34067;39.548;-76.088;2023-03-04T00:01:18;100773.75;;;1.43;100.00
31331;BME280;34067;39.548;-76.088;2023-03-04T00:03:47;100762.88;;;0.41;100.00
31331;BME280;34067;39.548;-76.088;2023-03-04T00:06:15;100737.38;;;0.55;100.00
31331;BME280;34067;39.548;-76.088;2023-03-04T00:08:43;100692.22;;;0.59;100.00
31331;BME280;34067;39.548;-76.088;2023-03-04T00:11:11;100632.85;;;0.48;100.00
31331;BME280;34067;39.548;-76.088;2023-03-04T00:13:40;100615.79;;;0.75;100.00
31331;BME280;34067;39.548;-76.088;2023-03-04T00:16:07;100609.35;;;0.93;100.00
31331;BME280;34067;39.548;-76.088;2023-03-04T00:18:35;100602.70;;;0.30;100.00
31331;BME280;34067;39.548;-76.088;2023-03-04T00:21:03;100587.07;;;0.19;100.00
31331;BME280;34067;39.548;-76.088;2023-03-04T00:23:32;100569.55;;;0.49;100.00
31331;BME280;34067;39.548;-76.088;2023-03-04T00:26:00;100549.56;;;0.40;100.00
31331;BME280;34067;39.548;-76.088;2023-03-04T00:28:29;100542.46;;;0.56;100.00
31331;BME280;34067;39.548;-76.088;2023-03-04T00:30:56;100495.94;;;0.32;100.00
31331;BME280;34067;39.548;-76.088;2023-03-04T00:33:24;100491.08;;;0.82;100.00
31331;BME280;34067;39.548;-76.088;2023-03-04T00:35:52;100482.21;;;0.19;100.00
31331;BME280;34067;39.548;-76.088;2023-03-04T00:38:21;100466.28;;;-0.08;100.00
31331;BME280;34067;39.548;-76.088;2023-03-04T00:40:48;100453.13;;;0.75;100.00
31331;BME280;34067;39.548;-76.088;2023-03-04T00:43:17;100425.59;;;0.71;100.00
31331;BME280;34067;39.548;-76.088;2023-03-04T00:45:45;100403.02;;;1.32;100.00
31331;BME280;34067;39.548;-76.088;2023-03-04T00:48:13;100390.42;;;1.11;100.00
31331;BME280;34067;39.548;-76.088;2023-03-04T00:50:42;100352.55;;;1.40;100.00
31331;BME280;34067;39.548;-76.088;2023-03-04T00:53:11;100330.29;;;1.12;100.00
31331;BME280;34067;39.548;-76.088;2023-03-04T00:55:39;100355.66;;;1.03;100.00
31331;BME280;34067;39.548;-76.088;2023-03-04T00:58:07;100364.20;;;1.09;100.00
31331;BME280;34067;39.548;-76.088;2023-03-04T01:00:36;100360.44;;;2.01;100.00
31331;BME280;34067;39.548;-76.088;2023-03-04T01:03:04;100368.86;;;1.84;100.00
31331;BME280;34067;39.548;-76.088;2023-03-04T01:05:31;100373.82;;;1.18;100.00
31331;BME280;34067;39.548;-76.088;2023-03-04T01:08:00;100372.00;;;1.92;100.00
31331;BME280;34067;39.548;-76.088;2023-03-04T01:10:28;100350.54;;;1.86;100.00
31331;BME280;34067;39.548;-76.088;2023-03-04T01:12:57;100333.28;;;1.99;100.00
31331;BME280;34067;39.548;-76.088;2023-03-04T01:15:25;100319.79;;;1.72;100.00
31331;BME280;34067;39.548;-76.088;2023-03-04T01:17:53;100320.89;;;2.27;100.00
31331;BME280;34067;39.548;-76.088;2023-03-04T01:20:22;100304.16;;;2.22;100.00
31331;BME280;34067;39.548;-76.088;2023-03-04T01:22:50;100287.13;;;1.55;100.00
31331;BME280;34067;39.548;-76.088;2023-03-04T01:25:19;100266.48;;;1.33;100.00
31331;BME280;34067;39.548;-76.088;2023-03-04T01:27:47;100255.15;;;2.28;100.00
31331;BME280;34067;39.548;-76.088;2023-03-04T01:30:15;100257.80;;;1.95;100.00
31331;BME280;34067;39.548;-76.088;2023-03-04T01:32:43;100248.36;;;2.47;100.00
31331;BME280;34067;39.548;-76.088;2023-03-04T01:35:11;100230.84;;;2.31;100.00
31331;BME280;34067;39.548;-76.088;2023-03-04T01:37:41;100243.77;;;2.06;100.00
31331;BME280;34067;39.548;-76.088;2023-03-04T01:40:11;100253.20;;;2.91;100.00
31331;BME280;34067;39.548;-76.088;2023-03-04T01:42:39;100249.39;;;2.37;100.00
31331;BME280;34067;39.548;-76.088;2023-03-04T01:45:12;100202.80;;;2.06;100.00
31331;BME280;34067;39.548;-76.088;2023-03-04T01:47:41;100167.29;;;2.72;100.00
31331;BME280;34067;39.548;-76.088;2023-03-04T01:50:18;100159.16;;;2.17;100.00
31331;BME280;34067;39.548;-76.088;2023-03-04T01:52:48;100137.24;;;2.27;100.00
31331;BME280;34067;39.548;-76.088;2023-03-04T01:55:18;100096.62;;;2.80;100.00
31331;BME280;34067;39.548;-76.088;2023-03-04T01:57:48;100091.69;;;2.36;100.00
31331;BME280;34067;39.548;-76.088;2023-03-04T02:00:21;100093.40;;;2.22;100.00
31331;BME280;34067;39.548;-76.088;2023-03-04T02:02:52;100044.53;;;2.20;100.00
31331;BME280;34067;39.548;-76.088;2023-03-04T02:05:21;100012.21;;;2.85;100.00
31331;BME280;34067;39.548;-76.088;2023-03-04T02:07:51;99978.02;;;1.81;100.00
31331;BME280;34067;39.548;-76.088;2023-03-04T02:10:20;99980.76;;;2.13;100.00
31331;BME280;34067;39.548;-76.088;2023-03-04T02:12:49;99973.04;;;2.58;100.00
31331;BME280;34067;39.548;-76.088;2023-03-04T02:15:18;99953.72;;;2.55;100.00
31331;BME280;34067;39.548;-76.088;2023-03-04T02:17:47;99927.84;;;2.55;100.00
31331;BME280;34067;39.548;-76.088;2023-03-04T02:20:33;99921.95;;;2.95;100.00
31331;BME280;34067;39.548;-76.088;2023-03-04T02:23:09;99897.60;;;2.59;100.00
31331;BME280;34067;39.548;-76.088;2023-03-04T02:25:44;99853.33;;;2.91;100.00
31331;BME280;34067;39.548;-76.088;2023-03-04T02:28:13;99858.42;;;2.72;100.00
31331;BME280;34067;39.548;-76.088;2023-03-04T02:30:41;99835.77;;;2.53;100.00
31331;BME280;34067;39.548;-76.088;2023-03-04T02:33:15;99806.08;;;2.71;100.00
31331;BME280;34067;39.548;-76.088;2023-03-04T02:35:44;99794.60;;;2.94;100.00
31331;BME280;34067;39.548;-76.088;2023-03-04T02:38:12;99768.23;;;3.36;100.00
31331;BME280;34067;39.548;-76.088;2023-03-04T02:40:44;99757.12;;;2.51;100.00
31331;BME280;34067;39.548;-76.088;2023-03-04T02:43:14;99747.37;;;2.47;100.00
31331;BME280;34067;39.548;-76.088;2023-03-04T02:45:44;99750.41;;;2.59;100.00
31331;BME280;34067;39.548;-76.088;2023-03-04T02:48:16;99737.45;;;2.81;100.00
31331;BME280;34067;39.548;-76.088;2023-03-04T02:50:47;99729.41;;;2.76;100.00
31331;BME280;34067;39.548;-76.088;2023-03-04T02:53:16;99749.42;;;2.79;100.00
31331;BME280;34067;39.548;-76.088;2023-03-04T02:55:45;99739.48;;;2.87;100.00
31331;BME280;34067;39.548;-76.088;2023-03-04T02:58:14;99747.31;;;2.53;100.00
31331;BME280;34067;39.548;-76.088;2023-03-04T03:00:41;99751.93;;;3.16;100.00
31331;BME280;34067;39.548;-76.088;2023-03-04T03:03:11;99733.58;;;3.51;100.00
31331;BME280;34067;39.548;-76.088;2023-03-04T03:05:39;99727.77;;;3.38;100.00
31331;BME280;34067;39.548;-76.088;2023-03-04T03:08:07;99734.44;;;2.98;100.00
31331;BME280;34067;39.548;-76.088;2023-03-04T03:10:35;99710.94;;;3.31;100.00
31331;BME280;34067;39.548;-76.088;2023-03-04T03:13:03;99686.50;;;2.80;100.00
31331;BME280;34067;39.548;-76.088;2023-03-04T03:15:32;99704.74;;;2.61;100.00
31331;BME280;34067;39.548;-76.088;2023-03-04T03:18:00;99721.57;;;3.64;100.00
31331;BME280;34067;39.548;-76.088;2023-03-04T03:20:28;99693.52;;;3.09;100.00
31331;BME280;34067;39.548;-76.088;2023-03-04T03:22:56;99664.94;;;3.15;100.00
31331;BME280;34067;39.548;-76.088;2023-03-04T03:25:24;99667.23;;;3.73;100.00
31331;BME280;34067;39.548;-76.088;2023-03-04T03:27:53;99668.99;;;3.80;100.00
31331;BME280;34067;39.548;-76.088;2023-03-04T03:30:20;99672.27;;;3.79;100.00
31331;BME280;34067;39.548;-76.088;2023-03-04T03:32:49;99678.71;;;4.80;100.00
31331;BME280;34067;39.548;-76.088;2023-03-04T03:35:17;99679.93;;;4.67;100.00
31331;BME280;34067;39.548;-76.088;2023-03-04T03:37:45;99659.83;;;5.25;100.00
31331;BME280;34067;39.548;-76.088;2023-03-04T03:40:14;99657.94;;;4.80;100.00
31331;BME280;34067;39.548;-76.088;2023-03-04T03:42:42;99636.13;;;5.57;100.00
31331;BME280;34067;39.548;-76.088;2023-03-04T03:45:11;99593.81;;;5.25;100.00
31331;BME280;34067;39.548;-76.088;2023-03-04T03:47:39;99575.61;;;5.33;100.00
31331;BME280;34067;39.548;-76.088;2023-03-04T03:50:08;99549.73;;;3.96;100.00
31331;BME280;34067;39.548;-76.088;2023-03-04T03:52:36;99512.09;;;4.45;100.00
31331;BME280;34067;39.548;-76.088;2023-03-04T03:55:05;99477.80;;;4.44;100.00
31331;BME280;34067;39.548;-76.088;2023-03-04T03:57:34;99456.95;;;4.27;100.00
31331;BME280;34067;39.548;-76.088;2023-03-04T04:00:03;99414.92;;;4.32;100.00
31331;BME280;34067;39.548;-76.088;2023-03-04T04:02:31;99381.30;;;4.70;100.00
31331;BME280;34067;39.548;-76.088;2023-03-04T04:04:59;99366.93;;;4.31;100.00
31331;BME280;34067;39.548;-76.088;2023-03-04T04:07:28;99348.08;;;4.55;100.00
31331;BME280;34067;39.548;-76.088;2023-03-04T04:09:56;99372.48;;;4.23;100.00
31331;BME280;34067;39.548;-76.088;2023-03-04T04:12:24;99384.09;;;4.70;100.00
31331;BME280;34067;39.548;-76.088;2023-03-04T04:14:52;99357.97;;;4.99;100.00
31331;BME280;34067;39.548;-76.088;2023-03-04T04:17:20;99357.68;;;5.97;100.00
31331;BME280;34067;39.548;-76.088;2023-03-04T04:19:49;99344.69;;;5.12;100.00
31331;BME280;34067;39.548;-76.088;2023-03-04T04:22:19;99363.64;;;5.41;100.00
31331;BME280;34067;39.548;-76.088;2023-03-04T04:24:47;99343.43;;;5.48;100.00
31331;BME280;34067;39.548;-76.088;2023-03-04T04:27:15;99318.04;;;5.93;100.00
31331;BME280;34067;39.548;-76.088;2023-03-04T04:29:44;99302.10;;;5.62;100.00
31331;BME280;34067;39.548;-76.088;2023-03-04T04:32:12;99236.60;;;6.29;100.00
31331;BME280;34067;39.548;-76.088;2023-03-04T04:34:41;99223.89;;;5.75;100.00
31331;BME280;34067;39.548;-76.088;2023-03-04T04:37:08;99223.40;;;5.21;100.00
31331;BME280;34067;39.548;-76.088;2023-03-04T04:39:36;99226.67;;;6.53;100.00
31331;BME280;34067;39.548;-76.088;2023-03-04T04:42:05;99211.74;;;6.47;100.00
31331;BME280;34067;39.548;-76.088;2023-03-04T04:44:33;99226.10;;;7.48;100.00
31331;BME280;34067;39.548;-76.088;2023-03-04T04:47:01;99222.11;;;7.05;100.00
31331;BME280;34067;39.548;-76.088;2023-03-04T04:49:29;99204.80;;;7.17;100.00
31331;BME280;34067;39.548;-76.088;2023-03-04T04:51:57;99189.35;;;9.01;100.00
31331;BME280;34067;39.548;-76.088;2023-03-04T04:54:26;99190.98;;;8.50;100.00
31331;BME280;34067;39.548;-76.088;2023-03-04T04:56:55;99169.17;;;7.91;100.00
31331;BME280;34067;39.548;-76.088;2023-03-04T04:59:23;99172.30;;;8.31;100.00
31331;BME280;34067;39.548;-76.088;2023-03-04T05:01:51;99237.92;;;9.05;100.00
31331;BME280;34067;39.548;-76.088;2023-03-04T05:04:20;99188.37;;;9.23;100.00
31331;BME280;34067;39.548;-76.088;2023-03-04T05:06:47;99112.72;;;8.20;100.00
31331;BME280;34067;39.548;-76.088;2023-03-04T05:09:16;99110.84;;;7.57;100.00
31331;BME280;34067;39.548;-76.088;2023-03-04T05:11:44;99076.32;;;6.96;100.00
31331;BME280;34067;39.548;-76.088;2023-03-04T05:14:12;99154.51;;;7.35;100.00
31331;BME280;34067;39.548;-76.088;2023-03-04T05:16:40;99138.93;;;8.95;100.00
31331;BME280;34067;39.548;-76.088;2023-03-04T05:19:09;99153.36;;;9.09;100.00
31331;BME280;34067;39.548;-76.088;2023-03-04T05:21:37;99202.40;;;8.34;100.00
31331;BME280;34067;39.548;-76.088;2023-03-04T05:24:05;99218.40;;;8.46;100.00
31331;BME280;34067;39.548;-76.088;2023-03-04T05:26:34;99168.13;;;10.11;100.00
31331;BME280;34067;39.548;-76.088;2023-03-04T05:29:03;99182.48;;;10.91;100.00
31331;BME280;34067;39.548;-76.088;2023-03-04T05:31:30;99213.68;;;9.93;100.00
31331;BME280;34067;39.548;-76.088;2023-03-04T05:33:58;99208.93;;;10.60;100.00
31331;BME280;34067;39.548;-76.088;2023-03-04T05:36:27;99199.80;;;10.45;100.00
31331;BME280;34067;39.548;-76.088;2023-03-04T05:38:55;99190.58;;;10.05;100.00
31331;BME280;34067;39.548;-76.088;2023-03-04T05:41:23;99192.70;;;10.09;100.00
31331;BME280;34067;39.548;-76.088;2023-03-04T05:43:52;99178.69;;;10.28;100.00
31331;BME280;34067;39.548;-76.088;2023-03-04T05:46:20;99144.73;;;10.99;100.00
31331;BME280;34067;39.548;-76.088;2023-03-04T05:48:48;99138.02;;;8.75;100.00
31331;BME280;34067;39.548;-76.088;2023-03-04T05:51:16;99113.89;;;8.41;100.00
31331;BME280;34067;39.548;-76.088;2023-03-04T05:53:45;99096.31;;;5.75;100.00
31331;BME280;34067;39.548;-76.088;2023-03-04T05:56:15;99112.78;;;7.77;100.00
31331;BME280;34067;39.548;-76.088;2023-03-04T05:58:44;99122.68;;;7.36;100.00
31331;BME280;34067;39.548;-76.088;2023-03-04T06:03:14;99103.08;;;6.74;100.00
31331;BME280;34067;39.548;-76.088;2023-03-04T06:05:43;99123.70;;;7.25;100.00
31331;BME280;34067;39.548;-76.088;2023-03-04T06:08:11;99096.81;;;7.42;100.00
31331;BME280;34067;39.548;-76.088;2023-03-04T06:10:41;99119.54;;;7.58;100.00
31331;BME280;34067;39.548;-76.088;2023-03-04T06:13:09;99070.85;;;8.30;100.00
31331;BME280;34067;39.548;-76.088;2023-03-04T06:15:37;99095.08;;;7.02;100.00
31331;BME280;34067;39.548;-76.088;2023-03-04T06:18:06;99090.93;;;6.34;100.00
31331;BME280;34067;39.548;-76.088;2023-03-04T06:20:34;99072.06;;;6.14;100.00
31331;BME280;34067;39.548;-76.088;2023-03-04T06:23:02;99062.76;;;6.23;100.00
31331;BME280;34067;39.548;-76.088;2023-03-04T06:25:31;99055.21;;;7.86;100.00
31331;BME280;34067;39.548;-76.088;2023-03-04T06:27:59;99056.02;;;6.93;100.00
31331;BME280;34067;39.548;-76.088;2023-03-04T06:30:27;99057.16;;;7.02;100.00
31331;BME280;34067;39.548;-76.088;2023-03-04T06:32:56;99056.10;;;5.53;100.00
31331;BME280;34067;39.548;-76.088;2023-03-04T06:35:23;99049.85;;;5.77;100.00
31331;BME280;34067;39.548;-76.088;2023-03-04T06:37:52;99043.45;;;5.63;100.00
31331;BME280;34067;39.548;-76.088;2023-03-04T06:40:20;99044.39;;;7.00;100.00
31331;BME280;34067;39.548;-76.088;2023-03-04T06:42:49;99036.66;;;6.21;100.00
31331;BME280;34067;39.548;-76.088;2023-03-04T06:45:16;99042.38;;;5.29;100.00
31331;BME280;34067;39.548;-76.088;2023-03-04T06:47:45;99038.45;;;6.28;100.00
31331;BME280;34067;39.548;-76.088;2023-03-04T06:50:13;99031.88;;;5.72;100.00
31331;BME280;34067;39.548;-76.088;2023-03-04T06:52:41;99032.53;;;5.42;100.00
31331;BME280;34067;39.548;-76.088;2023-03-04T06:55:10;99034.59;;;5.88;100.00
31331;BME280;34067;39.548;-76.088;2023-03-04T06:57:38;99019.49;;;6.29;100.00
31331;BME280;34067;39.548;-76.088;2023-03-04T07:00:08;99022.15;;;4.48;100.00
31331;BME280;34067;39.548;-76.088;2023-03-04T07:02:36;99016.80;;;5.64;100.00
31331;BME280;34067;39.548;-76.088;2023-03-04T07:05:05;99015.04;;;5.05;100.00
31331;BME280;34067;39.548;-76.088;2023-03-04T07:07:33;99020.18;;;5.03;100.00
31331;BME280;34067;39.548;-76.088;2023-03-04T07:10:01;99018.89;;;5.41;100.00
31331;BME280;34067;39.548;-76.088;2023-03-04T07:12:30;99016.25;;;5.75;100.00
31331;BME280;34067;39.548;-76.088;2023-03-04T07:14:58;99013.35;;;6.19;100.00
31331;BME280;34067;39.548;-76.088;2023-03-04T07:17:26;99007.81;;;6.25;100.00
31331;BME280;34067;39.548;-76.088;2023-03-04T07:19:55;98994.66;;;7.54;100.00
31331;BME280;34067;39.548;-76.088;2023-03-04T07:22:23;98995.12;;;7.51;100.00
31331;BME280;34067;39.548;-76.088;2023-03-04T07:24:50;98992.72;;;7.64;100.00
31331;BME280;34067;39.548;-76.088;2023-03-04T07:27:19;98992.25;;;7.81;98.59
31331;BME280;34067;39.548;-76.088;2023-03-04T07:29:47;98992.52;;;8.64;97.64
31331;BME280;34067;39.548;-76.088;2023-03-04T07:32:15;98989.29;;;8.67;94.52
31331;BME280;34067;39.548;-76.088;2023-03-04T07:34:43;98990.77;;;9.44;93.53
31331;BME280;34067;39.548;-76.088;2023-03-04T07:37:12;98995.09;;;8.38;94.59
31331;BME280;34067;39.548;-76.088;2023-03-04T07:39:40;99002.71;;;7.12;97.56
31331;BME280;34067;39.548;-76.088;2023-03-04T07:42:08;99009.86;;;7.05;100.00
31331;BME280;34067;39.548;-76.088;2023-03-04T07:44:36;99023.75;;;5.36;100.00
31331;BME280;34067;39.548;-76.088;2023-03-04T07:47:05;99022.33;;;6.43;100.00
31331;BME280;34067;39.548;-76.088;2023-03-04T07:49:32;99023.05;;;5.82;100.00
31331;BME280;34067;39.548;-76.088;2023-03-04T07:52:03;99030.47;;;6.18;100.00
31331;BME280;34067;39.548;-76.088;2023-03-04T07:54:31;99027.07;;;6.30;100.00
31331;BME280;34067;39.548;-76.088;2023-03-04T07:57:00;99028.72;;;6.42;100.00
31331;BME280;34067;39.548;-76.088;2023-03-04T07:59:28;99034.68;;;6.73;100.00
31331;BME280;34067;39.548;-76.088;2023-03-04T08:01:56;99036.52;;;6.47;100.00
31331;BME280;34067;39.548;-76.088;2023-03-04T08:04:24;99043.78;;;6.27;100.00
31331;BME280;34067;39.548;-76.088;2023-03-04T08:06:52;99048.00;;;6.72;100.00
31331;BME280;34067;39.548;-76.088;2023-03-04T08:09:21;99054.69;;;6.58;100.00
31331;BME280;34067;39.548;-76.088;2023-03-04T08:11:50;99044.39;;;8.35;99.52
31331;BME280;34067;39.548;-76.088;2023-03-04T08:14:19;99039.78;;;7.80;97.29
31331;BME280;34067;39.548;-76.088;2023-03-04T08:16:46;99033.82;;;7.87;97.63
31331;BME280;34067;39.548;-76.088;2023-03-04T08:19:14;99029.69;;;8.94;94.50
31331;BME280;34067;39.548;-76.088;2023-03-04T08:21:42;99032.32;;;8.72;92.27
31331;BME280;34067;39.548;-76.088;2023-03-04T08:24:11;99036.06;;;8.35;91.67
31331;BME280;34067;39.548;-76.088;2023-03-04T08:26:41;99043.41;;;8.78;91.43
31331;BME280;34067;39.548;-76.088;2023-03-04T08:29:12;99047.94;;;9.37;93.46
31331;BME280;34067;39.548;-76.088;2023-03-04T08:31:41;99055.70;;;9.87;93.90
31331;BME280;34067;39.548;-76.088;2023-03-04T08:34:09;99065.60;;;10.22;92.91
31331;BME280;34067;39.548;-76.088;2023-03-04T08:36:37;99073.42;;;10.03;94.77
31331;BME280;34067;39.548;-76.088;2023-03-04T08:39:05;99076.02;;;9.96;93.58
31331;BME280;34067;39.548;-76.088;2023-03-04T08:41:33;99082.26;;;9.64;92.14
31331;BME280;34067;39.548;-76.088;2023-03-04T08:44:01;99088.91;;;9.72;94.68
31331;BME280;34067;39.548;-76.088;2023-03-04T08:46:30;99099.17;;;10.09;96.44
31331;BME280;34067;39.548;-76.088;2023-03-04T08:48:58;99112.01;;;8.86;98.34
31331;BME280;34067;39.548;-76.088;2023-03-04T08:51:26;99125.15;;;9.83;100.00
31331;BME280;34067;39.548;-76.088;2023-03-04T08:53:54;99140.45;;;8.50;100.00
31331;BME280;34067;39.548;-76.088;2023-03-04T08:56:22;99157.50;;;8.78;100.00
31331;BME280;34067;39.548;-76.088;2023-03-04T08:58:50;99165.90;;;9.07;100.00
31331;BME280;34067;39.548;-76.088;2023-03-04T09:01:19;99179.44;;;10.15;96.84
31331;BME280;34067;39.548;-76.088;2023-03-04T09:03:48;99196.10;;;9.98;96.44
31331;BME280;34067;39.548;-76.088;2023-03-04T09:06:17;99199.45;;;8.27;100.00
31331;BME280;34067;39.548;-76.088;2023-03-04T09:08:46;99210.86;;;7.87;100.00
31331;BME280;34067;39.548;-76.088;2023-03-04T09:11:14;99216.42;;;8.51;100.00
31331;BME280;34067;39.548;-76.088;2023-03-04T09:13:42;99213.77;;;8.26;100.00
31331;BME280;34067;39.548;-76.088;2023-03-04T09:16:11;99230.09;;;8.74;100.00
31331;BME280;34067;39.548;-76.088;2023-03-04T09:18:41;99239.33;;;9.66;97.39
31331;BME280;34067;39.548;-76.088;2023-03-04T09:21:09;99245.75;;;8.64;98.83
31331;BME280;34067;39.548;-76.088;2023-03-04T09:23:37;99245.28;;;8.45;99.44
31331;BME280;34067;39.548;-76.088;2023-03-04T09:26:15;99249.26;;;8.62;98.24
31331;BME280;34067;39.548;-76.088;2023-03-04T09:28:43;99263.74;;;8.37;100.00
31331;BME280;34067;39.548;-76.088;2023-03-04T09:31:12;99254.86;;;8.32;96.93
31331;BME280;34067;39.548;-76.088;2023-03-04T09:33:40;99265.80;;;8.25;98.29
31331;BME280;34067;39.548;-76.088;2023-03-04T09:36:09;99267.59;;;6.98;100.00
31331;BME280;34067;39.548;-76.088;2023-03-04T09:38:38;99273.74;;;8.00;98.75
31331;BME280;34067;39.548;-76.088;2023-03-04T09:41:09;99280.51;;;7.94;97.25
31331;BME280;34067;39.548;-76.088;2023-03-04T09:43:38;99282.79;;;8.79;94.32
31331;BME280;34067;39.548;-76.088;2023-03-04T09:46:09;99290.49;;;8.12;94.85
31331;BME280;34067;39.548;-76.088;2023-03-04T09:48:43;99309.80;;;7.04;97.06
31331;BME280;34067;39.548;-76.088;2023-03-04T09:51:21;99322.64;;;7.08;97.10
31331;BME280;34067;39.548;-76.088;2023-03-04T09:54:00;99328.44;;;7.28;94.70
31331;BME280;34067;39.548;-76.088;2023-03-04T09:56:33;99351.73;;;7.97;94.38
31331;BME280;34067;39.548;-76.088;2023-03-04T09:59:10;99365.76;;;6.37;100.00
31331;BME280;34067;39.548;-76.088;2023-03-04T10:01:48;99366.36;;;7.14;95.57
31331;BME280;34067;39.548;-76.088;2023-03-04T10:04:19;99379.43;;;6.68;97.67
31331;BME280;34067;39.548;-76.088;2023-03-04T10:06:54;99395.15;;;5.51;100.00
31331;BME280;34067;39.548;-76.088;2023-03-04T10:09:26;99407.69;;;5.81;100.00
31331;BME280;34067;39.548;-76.088;2023-03-04T10:12:00;99430.73;;;5.02;100.00
31331;BME280;34067;39.548;-76.088;2023-03-04T10:14:34;99439.91;;;5.37;100.00
31331;BME280;34067;39.548;-76.088;2023-03-04T10:17:10;99451.29;;;5.55;100.00
31331;BME280;34067;39.548;-76.088;2023-03-04T10:19:51;99467.52;;;5.99;100.00
31331;BME280;34067;39.548;-76.088;2023-03-04T10:22:27;99471.93;;;5.45;100.00
31331;BME280;34067;39.548;-76.088;2023-03-04T10:25:00;99477.78;;;6.06;99.15
31331;BME280;34067;39.548;-76.088;2023-03-04T10:27:29;99500.33;;;5.44;100.00
31331;BME280;34067;39.548;-76.088;2023-03-04T10:30:00;99508.52;;;5.34;100.00
31331;BME280;34067;39.548;-76.088;2023-03-04T10:32:27;99518.94;;;5.64;99.59
31331;BME280;34067;39.548;-76.088;2023-03-04T10:34:56;99525.79;;;5.14;98.59
31331;BME280;34067;39.548;-76.088;2023-03-04T10:37:24;99534.24;;;5.63;97.32
31331;BME280;34067;39.548;-76.088;2023-03-04T10:40:19;99540.27;;;5.97;94.59
31331;BME280;34067;39.548;-76.088;2023-03-04T10:42:49;99549.46;;;5.77;94.07
31331;BME280;34067;39.548;-76.088;2023-03-04T10:45:21;99548.35;;;7.43;88.88
31331;BME280;34067;39.548;-76.088;2023-03-04T10:47:54;99553.09;;;7.54;85.05
31331;BME280;34067;39.548;-76.088;2023-03-04T10:50:25;99556.74;;;8.27;81.78
31331;BME280;34067;39.548;-76.088;2023-03-04T10:52:55;99559.30;;;7.94;80.37
31331;BME280;34067;39.548;-76.088;2023-03-04T10:55:26;99564.47;;;7.92;81.08
31331;BME280;34067;39.548;-76.088;2023-03-04T10:57:57;99573.53;;;7.46;81.47
31331;BME280;34067;39.548;-76.088;2023-03-04T11:00:31;99582.29;;;7.75;80.68
31331;BME280;34067;39.548;-76.088;2023-03-04T11:03:34;99592.82;;;6.47;80.65
31331;BME280;34067;39.548;-76.088;2023-03-04T11:06:09;99597.51;;;7.15;81.23
31331;BME280;34067;39.548;-76.088;2023-03-04T11:08:39;99612.26;;;6.21;83.90
31331;BME280;34067;39.548;-76.088;2023-03-04T11:11:24;99622.25;;;7.02;84.07
31331;BME280;34067;39.548;-76.088;2023-03-04T11:13:58;99628.65;;;6.83;83.18
31331;BME280;34067;39.548;-76.088;2023-03-04T11:16:29;99645.38;;;5.80;84.85
31331;BME280;34067;39.548;-76.088;2023-03-04T11:19:03;99645.93;;;7.03;82.02
31331;BME280;34067;39.548;-76.088;2023-03-04T11:21:38;99664.48;;;6.30;82.55
31331;BME280;34067;39.548;-76.088;2023-03-04T11:24:13;99665.27;;;7.51;79.99
31331;BME280;34067;39.548;-76.088;2023-03-04T11:26:44;99668.05;;;7.61;79.08
31331;BME280;34067;39.548;-76.088;2023-03-04T11:29:16;99678.18;;;6.18;80.39
31331;BME280;34067;39.548;-76.088;2023-03-04T11:31:50;99668.75;;;5.73;82.00
31331;BME280;34067;39.548;-76.088;2023-03-04T11:34:33;99672.71;;;6.49;81.09
31331;BME280;34067;39.548;-76.088;2023-03-04T11:37:10;99675.60;;;4.29;85.10
31331;BME280;34067;39.548;-76.088;2023-03-04T11:39:45;99685.97;;;6.26;82.38
31331;BME280;34067;39.548;-76.088;2023-03-04T11:42:23;99696.76;;;5.46;83.68
31331;BME280;34067;39.548;-76.088;2023-03-04T11:44:55;99703.44;;;5.95;80.81
31331;BME280;34067;39.548;-76.088;2023-03-04T11:47:37;99714.24;;;5.35;82.36
31331;BME280;34067;39.548;-76.088;2023-03-04T11:50:20;99732.06;;;6.87;77.66
31331;BME280;34067;39.548;-76.088;2023-03-04T11:54:09;99735.12;;;6.63;77.53
31331;BME280;34067;39.548;-76.088;2023-03-04T11:56:44;99747.78;;;6.67;76.11
31331;BME280;34067;39.548;-76.088;2023-03-04T11:59:29;99755.34;;;7.08;75.55
31331;BME280;34067;39.548;-76.088;2023-03-04T12:02:12;99755.64;;;7.04;73.42
31331;BME280;34067;39.548;-76.088;2023-03-04T12:05:54;99763.07;;;6.16;76.91
31331;BME280;34067;39.548;-76.088;2023-03-04T12:08:39;99767.86;;;6.13;77.77
31331;BME280;34067;39.548;-76.088;2023-03-04T12:11:16;99778.09;;;6.80;76.04
31331;BME280;34067;39.548;-76.088;2023-03-04T12:13:57;99786.71;;;6.98;74.01
31331;BME280;34067;39.548;-76.088;2023-03-04T12:16:42;99791.45;;;7.87;72.14
31331;BME280;34067;39.548;-76.088;2023-03-04T12:19:25;99803.87;;;6.86;73.65
31331;BME280;34067;39.548;-76.088;2023-03-04T12:22:13;99809.82;;;5.70;75.22
31331;BME280;34067;39.548;-76.088;2023-03-04T12:25:04;99822.26;;;6.56;72.49
31331;BME280;34067;39.548;-76.088;2023-03-04T12:27:42;99837.56;;;5.70;76.10
31331;BME280;34067;39.548;-76.088;2023-03-04T12:30:27;99844.57;;;6.91;73.94
31331;BME280;34067;39.548;-76.088;2023-03-04T12:33:10;99849.75;;;7.11;73.50
31331;BME280;34067;39.548;-76.088;2023-03-04T12:35:44;99846.38;;;6.51;75.19
31331;BME280;34067;39.548;-76.088;2023-03-04T12:38:26;99853.61;;;6.66;72.72
31331;BME280;34067;39.548;-76.088;2023-03-04T12:41:07;99859.31;;;6.27;75.11
31331;BME280;34067;39.548;-76.088;2023-03-04T12:43:48;99870.62;;;6.13;72.97
31331;BME280;34067;39.548;-76.088;2023-03-04T12:46:26;99877.28;;;6.85;73.14
31331;BME280;34067;39.548;-76.088;2023-03-04T12:49:14;99888.84;;;7.77;71.02
31331;BME280;34067;39.548;-76.088;2023-03-04T12:51:50;99890.27;;;6.28;71.01
31331;BME280;34067;39.548;-76.088;2023-03-04T12:54:28;99900.43;;;5.75;72.34
31331;BME280;34067;39.548;-76.088;2023-03-04T12:57:01;99911.82;;;5.26;72.34
31331;BME280;34067;39.548;-76.088;2023-03-04T12:59:36;99919.66;;;5.99;73.23
31331;BME280;34067;39.548;-76.088;2023-03-04T13:02:28;99934.12;;;5.51;73.67